Time;durP1;ratioP1;P1;durP2;ratioP2;P2;SDS_P1;SDS_P2;PMS_P1;PMS_P2;Temp;Humidity;BMP_temperature;BMP_pressure;BME280_temperature;BME280_humidity;BME280_pressure;Samples;Min_cycle;Max_cycle;Signal;HPM_P1;HPM_P2
2023/04/14 00:01:20;;;;;;;;;;;19.20;49.10;;;;;;4990445;28;19957;-53
2023/04/14 00:03:45;;;;;;;;;;;19.20;49.10;;;;;;4992227;28;20445;-53
2023/04/14 00:06:10;;;;;;;;;;;19.20;49.10;;;;;;4993185;28;19918;-53
2023/04/14 00:08:36;;;;;;;;;;;19.20;49.20;;;;;;4992160;28;19937;-53
2023/04/14 00:11:01;;;;;;;;;;;19.10;49.10;;;;;;4992847;28;20370;-53
2023/04/14 00:13:27;;;;;;;;;;;19.10;49.00;;;;;;4992868;28;19913;-53
2023/04/14 00:15:52;;;;;;;;;;;19.10;49.30;;;;;;4989131;28;19914;-53
2023/04/14 00:18:18;;;;;;;;;;;19.10;49.10;;;;;;5007229;28;19920;-53
2023/04/14 00:20:43;;;;;;;;;;;19.10;49.10;;;;;;4991766;28;20009;-53
2023/04/14 00:23:09;;;;;;;;;;;19.10;49.20;;;;;;4991973;28;19918;-53
2023/04/14 00:25:34;;;;;;;;;;;19.10;49.20;;;;;;4992658;28;19917;-53
2023/04/14 00:28:00;;;;;;;;;;;19.10;49.20;;;;;;4991278;28;19914;-53
2023/04/14 00:30:25;;;;;;;;;;;19.00;49.10;;;;;;4988917;28;19964;-53
2023/04/14 00:32:51;;;;;;;;;;;19.00;49.20;;;;;;4991776;28;19918;-53
2023/04/14 00:35:16;;;;;;;;;;;19.00;49.20;;;;;;4992228;28;19921;-53
2023/04/14 00:37:42;;;;;;;;;;;19.00;49.30;;;;;;4993050;28;20004;-53
2023/04/14 00:40:09;;;;;;;;;;;18.90;49.20;;;;;;4992163;28;19922;-52
2023/04/14 00:42:42;;;;;;;;;;;18.90;49.20;;;;;;4990697;28;20000;-53
2023/04/14 00:45:08;;;;;;;;;;;18.90;49.10;;;;;;4984579;28;19928;-53
2023/04/14 00:47:33;;;;;;;;;;;18.90;49.10;;;;;;4992713;28;19915;-53
2023/04/14 00:49:58;;;;;;;;;;;18.90;49.10;;;;;;4992208;28;19918;-53
2023/04/14 00:52:24;;;;;;;;;;;18.90;49.00;;;;;;4989588;28;19914;-53
2023/04/14 00:54:49;;;;;;;;;;;18.90;49.10;;;;;;4984327;28;19914;-53
2023/04/14 00:57:15;;;;;;;;;;;18.90;49.00;;;;;;4988994;28;19924;-53
2023/04/14 00:59:40;;;;;;;;;;;18.90;49.20;;;;;;4985828;28;20430;-53
2023/04/14 01:02:06;;;;;;;;;;;18.80;49.10;;;;;;4992918;28;19910;-52
2023/04/14 01:04:31;;;;;;;;;;;18.80;49.10;;;;;;4992267;28;20366;-54
2023/04/14 01:06:57;;;;;;;;;;;18.80;49.10;;;;;;4992988;28;20418;-53
2023/04/14 01:09:23;;;;;;;;;;;18.80;49.10;;;;;;4993270;28;19925;-53
2023/04/14 01:11:55;;;;;;;;;;;18.80;49.10;;;;;;4991784;28;19914;-53
2023/04/14 01:14:24;;;;;;;;;;;18.80;49.00;;;;;;5019577;28;19921;-53
2023/04/14 01:16:49;;;;;;;;;;;18.80;48.90;;;;;;5008686;28;19925;-53
2023/04/14 01:19:20;;;;;;;;;;;18.90;48.90;;;;;;4986467;28;19913;-53
2023/04/14 01:21:46;;;;;;;;;;;18.90;48.80;;;;;;5028080;28;19916;-53
2023/04/14 01:24:25;;;;;;;;;;;19.00;48.90;;;;;;5018380;28;20366;-53
2023/04/14 01:26:55;;;;;;;;;;;19.10;49.40;;;;;;5031243;28;20362;-53
2023/04/14 01:29:33;;;;;;;;;;;19.10;48.40;;;;;;5040220;28;19921;-53
2023/04/14 01:32:00;;;;;;;;;;;19.30;48.30;;;;;;5040460;28;19953;-53
2023/04/14 01:34:33;;;;;;;;;;;19.40;48.00;;;;;;4993881;28;20358;-53
2023/04/14 01:37:06;;;;;;;;;;;19.50;47.60;;;;;;4995131;28;20016;-53
2023/04/14 01:39:37;;;;;;;;;;;19.70;47.50;;;;;;5012423;28;19976;-53
2023/04/14 01:42:03;;;;;;;;;;;19.70;47.40;;;;;;5028356;28;19923;-53
2023/04/14 01:44:29;;;;;;;;;;;19.70;47.30;;;;;;4992490;28;19961;-53
2023/04/14 01:46:55;;;;;;;;;;;19.70;47.40;;;;;;4995672;28;19921;-53
2023/04/14 01:49:21;;;;;;;;;;;19.70;47.30;;;;;;5027148;28;19918;-53
2023/04/14 01:51:46;;;;;;;;;;;19.60;47.30;;;;;;4994230;28;19941;-53
2023/04/14 01:54:12;;;;;;;;;;;19.70;47.20;;;;;;4994462;28;19942;-53
2023/04/14 01:56:37;;;;;;;;;;;19.70;47.20;;;;;;5007705;28;20008;-53
2023/04/14 01:59:03;;;;;;;;;;;19.70;47.00;;;;;;4997855;28;19914;-53
2023/04/14 02:01:28;;;;;;;;;;;19.80;47.00;;;;;;5000766;28;19914;-53
2023/04/14 02:03:53;;;;;;;;;;;19.80;46.80;;;;;;5009167;28;19914;-53
2023/04/14 02:06:19;;;;;;;;;;;19.90;46.70;;;;;;4992716;28;20005;-53
2023/04/14 02:08:44;;;;;;;;;;;19.90;46.50;;;;;;4995230;28;20290;-53
2023/04/14 02:11:10;;;;;;;;;;;20.00;46.60;;;;;;4994287;28;20007;-53
2023/04/14 02:13:36;;;;;;;;;;;20.00;46.60;;;;;;5026384;28;19914;-53
2023/04/14 02:16:01;;;;;;;;;;;20.00;46.40;;;;;;4995577;28;20004;-53
2023/04/14 02:18:27;;;;;;;;;;;20.00;46.40;;;;;;5010461;28;19918;-53
2023/04/14 02:20:53;;;;;;;;;;;20.10;46.40;;;;;;5008810;28;20009;-53
2023/04/14 02:23:18;;;;;;;;;;;20.10;46.30;;;;;;4994730;28;19949;-53
2023/04/14 02:25:54;;;;;;;;;;;20.10;46.10;;;;;;4995019;28;19917;-53
2023/04/14 02:28:20;;;;;;;;;;;20.10;46.10;;;;;;4995430;28;19921;-53
2023/04/14 02:30:47;;;;;;;;;;;20.10;46.40;;;;;;5024612;28;20274;-53
2023/04/14 02:33:15;;;;;;;;;;;20.00;46.20;;;;;;5008635;28;19918;-53
2023/04/14 02:35:49;;;;;;;;;;;20.10;46.30;;;;;;4988685;28;19976;-53
2023/04/14 02:38:21;;;;;;;;;;;20.00;46.30;;;;;;4995524;28;19914;-53
2023/04/14 02:40:46;;;;;;;;;;;20.00;46.30;;;;;;4998841;28;19942;-53
2023/04/14 02:43:16;;;;;;;;;;;20.00;46.30;;;;;;4994953;28;19945;-53
2023/04/14 02:45:42;;;;;;;;;;;19.90;46.40;;;;;;5011869;28;20032;-53
2023/04/14 02:48:08;;;;;;;;;;;19.90;46.50;;;;;;5017057;28;20005;-53
2023/04/14 02:50:34;;;;;;;;;;;19.90;46.40;;;;;;4994575;28;19920;-53
2023/04/14 02:52:59;;;;;;;;;;;19.90;46.40;;;;;;5025506;28;20009;-53
2023/04/14 02:55:25;;;;;;;;;;;19.80;46.50;;;;;;5023289;28;20010;-53
2023/04/14 02:57:51;;;;;;;;;;;19.80;46.40;;;;;;4999676;28;20381;-53
2023/04/14 03:00:16;;;;;;;;;;;19.80;46.40;;;;;;5019208;28;19918;-53
2023/04/14 03:02:42;;;;;;;;;;;19.80;46.40;;;;;;4993923;28;19925;-53
2023/04/14 03:05:08;;;;;;;;;;;19.80;46.40;;;;;;4984803;28;20298;-53
2023/04/14 03:07:33;;;;;;;;;;;19.80;46.30;;;;;;4986185;28;20022;-53
2023/04/14 03:09:59;;;;;;;;;;;19.90;46.20;;;;;;5007603;28;19921;-53
2023/04/14 03:12:24;;;;;;;;;;;19.90;46.20;;;;;;4994253;28;19916;-53
2023/04/14 03:14:50;;;;;;;;;;;19.90;46.10;;;;;;4993560;28;20243;-53
2023/04/14 03:17:17;;;;;;;;;;;19.90;46.20;;;;;;5016945;28;20004;-53
2023/04/14 03:19:42;;;;;;;;;;;19.90;46.10;;;;;;4980760;28;19925;-53
2023/04/14 03:22:08;;;;;;;;;;;19.90;46.20;;;;;;5006833;28;19909;-53
2023/04/14 03:24:34;;;;;;;;;;;19.90;46.10;;;;;;5025084;28;20374;-53
2023/04/14 03:27:00;;;;;;;;;;;19.90;46.20;;;;;;5025960;28;19922;-53
2023/04/14 03:29:27;;;;;;;;;;;19.90;46.00;;;;;;4992855;28;19913;-53
2023/04/14 03:31:53;;;;;;;;;;;19.90;45.90;;;;;;4993841;28;19921;-53
2023/04/14 03:34:19;;;;;;;;;;;20.00;45.80;;;;;;5001071;28;19922;-53
2023/04/14 03:36:45;;;;;;;;;;;20.00;46.50;;;;;;4985726;28;20291;-53
2023/04/14 03:39:13;;;;;;;;;;;20.00;45.80;;;;;;5021434;28;19922;-53
2023/04/14 03:41:39;;;;;;;;;;;20.00;45.80;;;;;;5007209;28;19936;-53
2023/04/14 03:44:05;;;;;;;;;;;20.00;45.80;;;;;;5004941;28;20366;-53
2023/04/14 03:46:30;;;;;;;;;;;20.00;45.90;;;;;;5002597;28;19913;-53
2023/04/14 03:48:57;;;;;;;;;;;19.90;45.80;;;;;;5008333;28;20583;-53
2023/04/14 03:51:22;;;;;;;;;;;19.90;45.80;;;;;;5029917;28;19918;-53
2023/04/14 03:53:48;;;;;;;;;;;19.90;45.80;;;;;;5028351;28;19975;-53
2023/04/14 03:56:13;;;;;;;;;;;20.00;45.80;;;;;;5001312;28;19914;-53
2023/04/14 03:58:39;;;;;;;;;;;19.90;45.90;;;;;;4994389;28;19940;-53
2023/04/14 04:01:05;;;;;;;;;;;20.00;45.90;;;;;;5020180;28;20017;-53
2023/04/14 04:03:32;;;;;;;;;;;19.90;45.80;;;;;;4984931;28;19922;-53
2023/04/14 04:05:58;;;;;;;;;;;19.90;45.80;;;;;;5000793;28;19913;-53
2023/04/14 04:08:23;;;;;;;;;;;19.90;45.70;;;;;;5001434;28;19968;-53
2023/04/14 04:10:49;;;;;;;;;;;19.90;45.80;;;;;;4982604;28;19972;-53
2023/04/14 04:13:17;;;;;;;;;;;19.80;45.80;;;;;;5025361;28;19913;-53
2023/04/14 04:15:43;;;;;;;;;;;19.80;45.90;;;;;;5026024;28;19922;-53
2023/04/14 04:18:08;;;;;;;;;;;19.80;45.90;;;;;;4986009;28;20485;-53
2023/04/14 04:20:35;;;;;;;;;;;19.80;46.00;;;;;;4993374;28;19920;-53
2023/04/14 04:23:00;;;;;;;;;;;19.70;45.80;;;;;;5020112;28;19918;-53
2023/04/14 04:25:26;;;;;;;;;;;19.70;46.00;;;;;;4988966;28;19917;-53
2023/04/14 04:27:51;;;;;;;;;;;19.70;46.00;;;;;;4991487;28;19914;-53
2023/04/14 04:30:17;;;;;;;;;;;19.70;46.10;;;;;;5033346;28;20453;-53
2023/04/14 04:32:42;;;;;;;;;;;19.70;45.90;;;;;;4999028;28;19944;-53
2023/04/14 04:35:08;;;;;;;;;;;19.70;45.80;;;;;;5002953;28;19964;-53
2023/04/14 04:37:33;;;;;;;;;;;19.80;45.90;;;;;;4995141;28;19909;-53
2023/04/14 04:39:59;;;;;;;;;;;19.80;45.90;;;;;;4992146;28;19929;-53
2023/04/14 04:42:25;;;;;;;;;;;19.80;45.70;;;;;;4992278;28;20393;-54
2023/04/14 04:44:50;;;;;;;;;;;19.80;45.60;;;;;;5026103;28;20374;-53
2023/04/14 04:47:16;;;;;;;;;;;19.80;45.60;;;;;;4996063;28;20282;-53
2023/04/14 04:49:41;;;;;;;;;;;19.80;45.60;;;;;;4999459;28;19914;-53
2023/04/14 04:52:07;;;;;;;;;;;19.90;45.50;;;;;;4989816;28;19949;-53
2023/04/14 04:54:32;;;;;;;;;;;19.90;45.50;;;;;;4995335;28;19921;-53
2023/04/14 04:56:58;;;;;;;;;;;19.90;45.50;;;;;;4992997;28;20013;-53
2023/04/14 04:59:24;;;;;;;;;;;19.90;45.50;;;;;;4997353;28;19957;-52
2023/04/14 05:01:49;;;;;;;;;;;19.90;45.40;;;;;;4994159;28;19960;-53
2023/04/14 05:04:15;;;;;;;;;;;19.90;45.40;;;;;;4992453;28;19925;-53
2023/04/14 05:06:41;;;;;;;;;;;19.90;45.40;;;;;;4987202;28;19945;-53
2023/04/14 05:09:07;;;;;;;;;;;19.90;45.40;;;;;;5002839;28;19976;-53
2023/04/14 05:11:32;;;;;;;;;;;19.90;45.30;;;;;;5030201;28;19918;-53
2023/04/14 05:13:58;;;;;;;;;;;19.90;45.30;;;;;;4999435;28;20003;-53
2023/04/14 05:16:24;;;;;;;;;;;19.90;45.40;;;;;;5036115;28;19928;-53
2023/04/14 05:18:49;;;;;;;;;;;19.80;46.10;;;;;;4995470;28;19965;-53
2023/04/14 05:21:15;;;;;;;;;;;19.80;45.30;;;;;;4997948;28;19941;-53
2023/04/14 05:23:42;;;;;;;;;;;19.90;45.30;;;;;;4999965;28;20040;-53
2023/04/14 05:26:08;;;;;;;;;;;19.90;45.30;;;;;;4998369;28;19932;-53
2023/04/14 05:28:33;;;;;;;;;;;19.90;45.40;;;;;;4984229;28;19914;-53
2023/04/14 05:30:59;;;;;;;;;;;19.80;45.30;;;;;;4985424;28;20190;-53
2023/04/14 05:33:24;;;;;;;;;;;19.70;45.30;;;;;;5014190;28;19914;-53
2023/04/14 05:35:50;;;;;;;;;;;19.80;45.50;;;;;;5024682;28;19929;-53
2023/04/14 05:38:15;;;;;;;;;;;19.70;45.40;;;;;;4995297;28;20362;-53
2023/04/14 05:40:41;;;;;;;;;;;19.70;45.60;;;;;;4997278;28;19925;-53
2023/04/14 05:43:06;;;;;;;;;;;19.60;45.60;;;;;;5006966;28;20000;-53
2023/04/14 05:45:32;;;;;;;;;;;19.60;46.30;;;;;;4998043;28;19925;-53
2023/04/14 05:47:57;;;;;;;;;;;19.60;45.60;;;;;;4997549;28;19913;-53
2023/04/14 05:50:23;;;;;;;;;;;19.60;45.70;;;;;;4996827;28;20012;-53
2023/04/14 05:52:48;;;;;;;;;;;19.70;45.70;;;;;;4995680;28;19976;-53
2023/04/14 05:55:14;;;;;;;;;;;19.70;45.60;;;;;;4996521;28;19952;-53
2023/04/14 05:57:39;;;;;;;;;;;19.70;45.40;;;;;;4991213;28;20460;-53
2023/04/14 06:00:06;;;;;;;;;;;19.70;45.40;;;;;;5017734;28;19918;-53
2023/04/14 06:02:31;;;;;;;;;;;19.80;45.30;;;;;;4992642;28;20305;-54
2023/04/14 06:04:58;;;;;;;;;;;19.80;45.20;;;;;;4994588;28;19928;-53
2023/04/14 06:07:24;;;;;;;;;;;19.90;45.30;;;;;;4993129;28;19921;-53
2023/04/14 06:09:49;;;;;;;;;;;19.90;45.30;;;;;;4985086;28;20294;-53
2023/04/14 06:12:15;;;;;;;;;;;19.90;45.30;;;;;;4994532;28;19921;-53
2023/04/14 06:14:40;;;;;;;;;;;19.90;45.20;;;;;;4990823;28;19921;-53
2023/04/14 06:17:06;;;;;;;;;;;19.90;45.00;;;;;;4994256;28;20445;-53
2023/04/14 06:19:31;;;;;;;;;;;20.00;45.20;;;;;;4995176;28;20424;-53
2023/04/14 06:21:56;;;;;;;;;;;19.90;45.00;;;;;;4995036;28;19924;-53
2023/04/14 06:24:22;;;;;;;;;;;19.90;45.00;;;;;;4990829;28;19918;-53
2023/04/14 06:26:47;;;;;;;;;;;19.90;45.70;;;;;;4994490;28;19914;-54
2023/04/14 06:29:13;;;;;;;;;;;19.90;45.20;;;;;;4993189;28;20330;-53
2023/04/14 06:31:38;;;;;;;;;;;19.90;45.20;;;;;;4998112;28;20685;-53
2023/04/14 06:34:04;;;;;;;;;;;19.90;45.20;;;;;;5006679;28;19914;-53
2023/04/14 06:36:30;;;;;;;;;;;19.80;45.30;;;;;;4992487;28;19917;-53
2023/04/14 06:38:56;;;;;;;;;;;19.80;45.30;;;;;;4994383;28;20306;-53
2023/04/14 06:41:22;;;;;;;;;;;19.80;45.20;;;;;;4997477;28;19988;-53
2023/04/14 06:43:47;;;;;;;;;;;19.90;45.30;;;;;;4997440;28;20393;-54
2023/04/14 06:46:12;;;;;;;;;;;19.90;45.20;;;;;;4989668;28;20017;-53
2023/04/14 06:48:38;;;;;;;;;;;19.90;45.20;;;;;;5008848;28;19928;-53
2023/04/14 06:51:03;;;;;;;;;;;19.90;45.10;;;;;;4996659;28;20330;-53
2023/04/14 06:53:29;;;;;;;;;;;19.90;45.10;;;;;;4994442;28;20311;-53
2023/04/14 06:55:58;;;;;;;;;;;19.90;45.10;;;;;;4994851;28;19937;-53
2023/04/14 06:58:32;;;;;;;;;;;20.00;45.20;;;;;;4991748;28;19917;-53
2023/04/14 07:00:58;;;;;;;;;;;20.00;45.20;;;;;;4995859;28;20381;-53
2023/04/14 07:03:23;;;;;;;;;;;19.90;45.10;;;;;;4993780;28;19914;-53
2023/04/14 07:05:49;;;;;;;;;;;20.00;45.30;;;;;;5005255;28;19917;-53
2023/04/14 07:08:18;;;;;;;;;;;19.90;45.20;;;;;;5034792;28;19964;-53
2023/04/14 07:10:43;;;;;;;;;;;19.90;45.30;;;;;;5003291;28;20358;-53
2023/04/14 07:13:09;;;;;;;;;;;20.00;45.40;;;;;;5008450;28;20028;-53
2023/04/14 07:15:34;;;;;;;;;;;19.90;45.30;;;;;;4993626;28;19914;-53
2023/04/14 07:18:00;;;;;;;;;;;19.90;45.30;;;;;;5001804;28;20008;-53
2023/04/14 07:20:25;;;;;;;;;;;19.90;45.30;;;;;;5002685;28;19921;-53
2023/04/14 07:22:51;;;;;;;;;;;19.90;45.30;;;;;;4995958;28;19921;-53
2023/04/14 07:25:17;;;;;;;;;;;19.90;45.40;;;;;;4997289;28;19932;-53
2023/04/14 07:27:42;;;;;;;;;;;19.90;45.40;;;;;;4994446;28;19917;-53
2023/04/14 07:30:08;;;;;;;;;;;19.90;45.30;;;;;;4986999;28;19922;-53
2023/04/14 07:32:33;;;;;;;;;;;19.90;45.40;;;;;;5004752;28;20298;-53
2023/04/14 07:34:59;;;;;;;;;;;19.90;45.40;;;;;;5001560;28;19922;-53
2023/04/14 07:37:24;;;;;;;;;;;19.80;45.60;;;;;;4992265;28;20486;-53
2023/04/14 07:39:57;;;;;;;;;;;19.90;45.60;;;;;;4992239;28;20366;-53
2023/04/14 07:42:23;;;;;;;;;;;19.80;45.70;;;;;;5039619;28;20392;-53
2023/04/14 07:44:48;;;;;;;;;;;19.70;45.70;;;;;;5005104;28;19922;-53
2023/04/14 07:47:13;;;;;;;;;;;19.70;45.70;;;;;;4999171;28;19914;-53
2023/04/14 07:49:39;;;;;;;;;;;19.80;45.90;;;;;;4992864;28;19917;-53
2023/04/14 07:52:04;;;;;;;;;;;19.80;45.80;;;;;;4995537;28;20276;-53
2023/04/14 07:54:30;;;;;;;;;;;19.70;45.80;;;;;;5031555;28;19917;-53
2023/04/14 07:56:56;;;;;;;;;;;19.70;46.00;;;;;;4995824;28;19918;-53
2023/04/14 07:59:22;;;;;;;;;;;19.70;45.90;;;;;;4997804;28;19917;-53
2023/04/14 08:01:47;;;;;;;;;;;19.70;45.90;;;;;;5001876;28;19918;-53
2023/04/14 08:04:13;;;;;;;;;;;19.80;45.80;;;;;;5006302;28;19937;-52
2023/04/14 08:06:38;;;;;;;;;;;19.90;45.90;;;;;;4998251;28;20354;-53
2023/04/14 08:09:04;;;;;;;;;;;19.90;45.80;;;;;;4992987;28;20259;-52
2023/04/14 08:11:29;;;;;;;;;;;19.90;45.60;;;;;;4992406;28;19922;-53
2023/04/14 08:13:55;;;;;;;;;;;20.00;46.10;;;;;;4983277;28;19999;-53
2023/04/14 08:16:21;;;;;;;;;;;20.00;46.00;;;;;;4988166;28;20378;-53
2023/04/14 08:18:47;;;;;;;;;;;20.00;45.80;;;;;;4996074;28;20572;-53
2023/04/14 08:21:12;;;;;;;;;;;20.00;45.80;;;;;;4985512;28;20282;-53
2023/04/14 08:23:38;;;;;;;;;;;19.90;45.90;;;;;;4980035;28;19921;-53
2023/04/14 08:26:03;;;;;;;;;;;19.90;46.80;;;;;;4988368;28;19918;-53
2023/04/14 08:28:29;;;;;;;;;;;19.90;46.30;;;;;;4989120;28;20334;-54
2023/04/14 08:30:54;;;;;;;;;;;19.90;46.30;;;;;;4992292;28;19921;-54
2023/04/14 08:33:20;;;;;;;;;;;20.00;46.40;;;;;;4998080;28;19921;-54
2023/04/14 08:35:45;;;;;;;;;;;20.10;46.40;;;;;;4990630;28;19918;-53
2023/04/14 08:38:11;;;;;;;;;;;20.00;46.20;;;;;;4988730;28;19921;-53
2023/04/14 08:40:39;;;;;;;;;;;20.00;46.30;;;;;;4984952;28;20009;-54
2023/04/14 08:43:05;;;;;;;;;;;20.10;46.30;;;;;;4984098;28;20358;-53
2023/04/14 08:45:31;;;;;;;;;;;20.10;46.30;;;;;;4990576;28;19924;-53
2023/04/14 08:47:57;;;;;;;;;;;20.10;46.10;;;;;;5018210;28;19914;-53
2023/04/14 08:50:23;;;;;;;;;;;20.20;46.30;;;;;;4988382;28;19921;-53
2023/04/14 08:52:49;;;;;;;;;;;20.20;46.20;;;;;;4987723;28;19921;-54
2023/04/14 08:55:15;;;;;;;;;;;20.20;46.30;;;;;;4985675;28;19914;-54
2023/04/14 08:57:42;;;;;;;;;;;20.20;46.20;;;;;;4994856;28;19918;-53
2023/04/14 09:00:08;;;;;;;;;;;20.30;46.20;;;;;;4988803;28;19928;-52
2023/04/14 09:02:33;;;;;;;;;;;20.30;46.10;;;;;;4986270;28;19918;-54
2023/04/14 09:04:59;;;;;;;;;;;20.30;46.10;;;;;;4996274;28;20188;-53
2023/04/14 09:07:25;;;;;;;;;;;20.30;46.10;;;;;;4996874;28;19910;-53
2023/04/14 09:09:51;;;;;;;;;;;20.30;46.10;;;;;;4989507;28;19914;-54
2023/04/14 09:12:16;;;;;;;;;;;20.30;46.20;;;;;;4995090;28;20424;-52
2023/04/14 09:14:43;;;;;;;;;;;20.30;46.40;;;;;;5005220;28;20529;-54
2023/04/14 09:17:08;;;;;;;;;;;20.30;46.30;;;;;;4996393;28;19937;-53
2023/04/14 09:19:34;;;;;;;;;;;20.30;46.30;;;;;;4995463;28;20366;-54
2023/04/14 09:21:59;;;;;;;;;;;20.30;46.20;;;;;;4991831;28;20359;-52
2023/04/14 09:24:28;;;;;;;;;;;20.40;46.20;;;;;;5004782;28;20374;-53
2023/04/14 09:26:56;;;;;;;;;;;20.30;46.30;;;;;;4991670;28;19909;-53
2023/04/14 09:29:22;;;;;;;;;;;20.30;46.40;;;;;;4983741;28;19914;-53
2023/04/14 09:31:47;;;;;;;;;;;20.30;46.30;;;;;;4990740;28;19914;-53
2023/04/14 09:34:19;;;;;;;;;;;20.40;46.40;;;;;;4987364;28;19961;-53
2023/04/14 09:37:01;;;;;;;;;;;20.30;46.30;;;;;;4995256;28;19918;-54
2023/04/14 09:39:26;;;;;;;;;;;20.40;46.60;;;;;;4993518;28;19922;-53
2023/04/14 09:41:52;;;;;;;;;;;20.30;46.60;;;;;;4993684;28;19925;-53
2023/04/14 09:44:17;;;;;;;;;;;20.30;46.50;;;;;;4998359;28;20282;-54
2023/04/14 09:47:03;;;;;;;;;;;20.30;46.70;;;;;;4994218;28;20001;-54
2023/04/14 09:49:29;;;;;;;;;;;20.30;46.70;;;;;;5001613;28;19936;-53
2023/04/14 09:52:02;;;;;;;;;;;20.20;46.80;;;;;;4995240;28;19913;-53
2023/04/14 09:54:27;;;;;;;;;;;20.20;46.90;;;;;;4991619;28;19956;-52
2023/04/14 09:56:53;;;;;;;;;;;20.10;46.80;;;;;;5006299;28;20378;-53
2023/04/14 09:59:35;;;;;;;;;;;20.10;46.80;;;;;;4994801;28;19917;-54
2023/04/14 10:02:07;;;;;;;;;;;20.10;46.70;;;;;;4994672;28;19993;-53
2023/04/14 10:04:32;;;;;;;;;;;20.10;46.90;;;;;;4994774;28;20297;-53
2023/04/14 10:06:58;;;;;;;;;;;20.00;46.90;;;;;;5003429;28;20024;-53
2023/04/14 10:09:26;;;;;;;;;;;20.00;47.30;;;;;;5001775;28;19960;-53
2023/04/14 10:12:08;;;;;;;;;;;20.10;46.80;;;;;;4998458;28;20207;-53
2023/04/14 10:14:34;;;;;;;;;;;20.20;46.90;;;;;;4993878;28;19913;-53
2023/04/14 10:17:00;;;;;;;;;;;20.20;46.80;;;;;;4994873;28;19979;-54
2023/04/14 10:19:26;;;;;;;;;;;20.10;45.60;;;;;;4993303;28;19910;-54
2023/04/14 10:21:51;;;;;;;;;;;20.10;45.40;;;;;;4999575;28;19914;-53
2023/04/14 10:24:17;;;;;;;;;;;20.10;45.60;;;;;;4994344;28;19921;-54
2023/04/14 10:26:46;;;;;;;;;;;20.10;45.50;;;;;;4994593;28;19917;-53
2023/04/14 10:29:11;;;;;;;;;;;20.20;45.90;;;;;;4994982;28;19909;-54
2023/04/14 10:31:37;;;;;;;;;;;20.20;46.00;;;;;;5029663;28;19919;-54
2023/04/14 10:34:10;;;;;;;;;;;20.20;46.20;;;;;;5009404;28;19914;-54
2023/04/14 10:36:36;;;;;;;;;;;20.30;46.20;;;;;;4998201;28;19910;-54
2023/04/14 10:39:02;;;;;;;;;;;20.40;46.30;;;;;;4992934;28;19980;-54
2023/04/14 10:41:36;;;;;;;;;;;20.40;46.10;;;;;;4998979;28;19913;-53
2023/04/14 10:44:02;;;;;;;;;;;20.40;46.10;;;;;;4999768;28;19918;-53
2023/04/14 10:46:40;;;;;;;;;;;20.40;46.10;;;;;;4993289;28;20064;-53
2023/04/14 10:49:07;;;;;;;;;;;20.50;46.00;;;;;;5009606;28;19918;-55
2023/04/14 10:51:35;;;;;;;;;;;20.50;45.90;;;;;;4987474;28;20653;-55
2023/04/14 10:54:01;;;;;;;;;;;20.50;46.00;;;;;;4991858;28;20068;-55
2023/04/14 10:56:28;;;;;;;;;;;20.40;46.20;;;;;;5023228;28;19921;-55
2023/04/14 10:58:54;;;;;;;;;;;20.30;46.30;;;;;;4986380;28;20003;-54
2023/04/14 11:01:20;;;;;;;;;;;20.40;46.40;;;;;;4997615;28;20076;-55
2023/04/14 11:03:46;;;;;;;;;;;20.40;46.30;;;;;;4994274;28;20429;-55
2023/04/14 11:06:11;;;;;;;;;;;20.50;46.10;;;;;;4993600;28;19921;-55
2023/04/14 11:08:36;;;;;;;;;;;20.50;46.20;;;;;;4992729;28;19929;-55
2023/04/14 11:11:03;;;;;;;;;;;20.40;46.30;;;;;;4994100;28;19973;-54
2023/04/14 11:13:29;;;;;;;;;;;20.40;46.40;;;;;;4993350;28;19914;-55
2023/04/14 11:16:02;;;;;;;;;;;20.40;46.40;;;;;;4987939;28;19936;-56
2023/04/14 11:18:28;;;;;;;;;;;20.50;46.30;;;;;;4988874;28;19928;-55
2023/04/14 11:20:53;;;;;;;;;;;20.40;46.30;;;;;;5022664;28;19913;-54
2023/04/14 11:23:25;;;;;;;;;;;20.40;46.50;;;;;;4989431;28;19914;-55
2023/04/14 11:25:50;;;;;;;;;;;20.40;46.40;;;;;;4993395;28;20020;-55
2023/04/14 11:28:25;;;;;;;;;;;20.40;46.50;;;;;;5007792;28;19920;-55
2023/04/14 11:30:50;;;;;;;;;;;20.40;46.50;;;;;;4990286;28;19917;-55
2023/04/14 11:33:16;;;;;;;;;;;20.50;46.40;;;;;;4991751;28;19918;-55
2023/04/14 11:35:41;;;;;;;;;;;20.50;46.40;;;;;;4989748;28;19924;-55
2023/04/14 11:38:07;;;;;;;;;;;20.50;46.40;;;;;;4986986;28;19979;-55
2023/04/14 11:40:35;;;;;;;;;;;20.50;46.20;;;;;;5019844;28;19961;-55
2023/04/14 11:43:01;;;;;;;;;;;20.50;46.40;;;;;;4997067;28;19928;-54
2023/04/14 11:45:29;;;;;;;;;;;20.50;46.40;;;;;;4990570;28;19918;-55
2023/04/14 11:47:55;;;;;;;;;;;20.50;46.30;;;;;;5023952;28;20017;-55
2023/04/14 11:50:21;;;;;;;;;;;20.50;46.30;;;;;;4986074;28;19925;-55
2023/04/14 11:52:46;;;;;;;;;;;20.60;46.40;;;;;;4997941;28;20364;-54
2023/04/14 11:55:12;;;;;;;;;;;20.60;46.40;;;;;;5006378;28;19918;-55
2023/04/14 11:57:39;;;;;;;;;;;20.60;46.30;;;;;;4989022;28;19964;-55
2023/04/14 12:00:05;;;;;;;;;;;20.60;46.20;;;;;;5018102;28;19941;-55
2023/04/14 12:02:30;;;;;;;;;;;20.50;46.30;;;;;;5001331;28;19918;-55
2023/04/14 12:04:55;;;;;;;;;;;20.50;46.40;;;;;;4993317;28;20000;-55
2023/04/14 12:07:22;;;;;;;;;;;20.50;46.40;;;;;;5006567;28;19910;-54
2023/04/14 12:09:48;;;;;;;;;;;20.50;46.30;;;;;;4992344;28;19921;-55
2023/04/14 12:12:14;;;;;;;;;;;20.50;46.50;;;;;;4991557;28;19922;-55
2023/04/14 12:14:40;;;;;;;;;;;20.60;46.30;;;;;;4990415;28;19918;-55
2023/04/14 12:17:06;;;;;;;;;;;20.60;46.20;;;;;;5000799;28;20000;-55
2023/04/14 12:19:33;;;;;;;;;;;20.60;46.30;;;;;;4982595;28;19918;-55
2023/04/14 12:21:58;;;;;;;;;;;20.60;46.40;;;;;;5022818;28;19967;-55
2023/04/14 12:24:31;;;;;;;;;;;20.60;46.40;;;;;;4990717;28;20345;-55
2023/04/14 12:26:56;;;;;;;;;;;20.60;46.50;;;;;;5004407;28;19937;-55
2023/04/14 12:29:22;;;;;;;;;;;20.60;46.60;;;;;;4992990;28;20362;-54
2023/04/14 12:31:47;;;;;;;;;;;20.50;46.70;;;;;;4992519;28;20374;-55
2023/04/14 12:34:18;;;;;;;;;;;20.50;46.90;;;;;;4992793;28;19910;-54
2023/04/14 12:36:49;;;;;;;;;;;20.50;46.80;;;;;;5006462;28;19922;-54
2023/04/14 12:39:15;;;;;;;;;;;20.60;46.90;;;;;;4991160;28;19921;-55
2023/04/14 12:41:40;;;;;;;;;;;20.60;46.80;;;;;;5000048;28;19925;-55
2023/04/14 12:44:19;;;;;;;;;;;20.50;46.80;;;;;;4991248;28;19914;-55
2023/04/14 12:46:48;;;;;;;;;;;20.40;46.90;;;;;;4996666;28;19968;-54
2023/04/14 12:49:32;;;;;;;;;;;20.40;46.90;;;;;;4992674;28;19953;-55
2023/04/14 12:51:58;;;;;;;;;;;20.50;47.00;;;;;;4991707;28;19918;-55
2023/04/14 12:54:23;;;;;;;;;;;20.60;46.80;;;;;;4991926;28;19910;-55
2023/04/14 12:56:49;;;;;;;;;;;20.60;46.90;;;;;;4998095;28;20456;-55
2023/04/14 12:59:14;;;;;;;;;;;20.50;46.80;;;;;;4988756;28;19913;-55
2023/04/14 13:01:40;;;;;;;;;;;20.50;47.10;;;;;;4986344;28;20382;-55
2023/04/14 13:04:05;;;;;;;;;;;20.60;46.90;;;;;;4982816;28;20413;-55
2023/04/14 13:06:31;;;;;;;;;;;20.60;46.70;;;;;;4998822;28;19983;-55
2023/04/14 13:08:57;;;;;;;;;;;20.60;46.80;;;;;;4995966;28;19920;-54
2023/04/14 13:11:22;;;;;;;;;;;20.70;46.80;;;;;;4994933;28;20013;-55
2023/04/14 13:13:48;;;;;;;;;;;20.70;46.70;;;;;;5013886;28;20293;-55
2023/04/14 13:16:14;;;;;;;;;;;20.70;46.50;;;;;;5006597;28;19960;-55
2023/04/14 13:18:40;;;;;;;;;;;20.70;46.60;;;;;;4993207;28;20449;-55
2023/04/14 13:21:05;;;;;;;;;;;20.70;46.60;;;;;;5026225;28;19914;-54
2023/04/14 13:23:31;;;;;;;;;;;20.80;46.60;;;;;;5009696;28;19940;-54
2023/04/14 13:25:56;;;;;;;;;;;20.80;46.50;;;;;;4994403;28;19917;-54
2023/04/14 13:28:22;;;;;;;;;;;20.80;46.60;;;;;;4995679;28;19913;-55
2023/04/14 13:30:51;;;;;;;;;;;20.80;46.50;;;;;;4999487;28;19953;-56
2023/04/14 13:33:17;;;;;;;;;;;20.80;46.70;;;;;;4996138;28;19962;-55
2023/04/14 13:35:42;;;;;;;;;;;20.80;46.70;;;;;;4994087;28;20394;-55
2023/04/14 13:38:08;;;;;;;;;;;20.90;46.50;;;;;;5014257;28;19921;-54
2023/04/14 13:40:33;;;;;;;;;;;20.90;46.60;;;;;;4987016;28;19955;-55
2023/04/14 13:42:59;;;;;;;;;;;20.80;47.20;;;;;;4981529;28;19914;-55
2023/04/14 13:45:24;;;;;;;;;;;20.80;46.70;;;;;;4992692;28;19937;-54
2023/04/14 13:47:50;;;;;;;;;;;20.80;46.90;;;;;;5009589;28;19922;-55
2023/04/14 13:50:17;;;;;;;;;;;20.80;47.00;;;;;;4994552;28;19949;-55
2023/04/14 13:52:42;;;;;;;;;;;20.70;47.00;;;;;;4996081;28;19964;-55
2023/04/14 13:55:08;;;;;;;;;;;20.70;46.80;;;;;;4984020;28;20005;-55
2023/04/14 13:57:34;;;;;;;;;;;20.70;47.00;;;;;;4978636;28;19921;-54
2023/04/14 14:00:00;;;;;;;;;;;20.70;47.00;;;;;;4991943;28;19921;-54
2023/04/14 14:02:25;;;;;;;;;;;20.70;47.10;;;;;;5002510;28;19917;-55
2023/04/14 14:04:51;;;;;;;;;;;20.70;47.20;;;;;;4994816;28;20012;-55
2023/04/14 14:07:16;;;;;;;;;;;20.70;47.20;;;;;;4990230;28;20279;-54
2023/04/14 14:09:43;;;;;;;;;;;20.60;47.00;;;;;;4995565;28;19917;-55
2023/04/14 14:12:09;;;;;;;;;;;20.60;47.10;;;;;;4980491;28;19921;-55